No se requiere un especial cuidado respecto a la situación meteorológica.   -   No hay avisos

Informes METAR

 

LEZL - Sevilla, Spain
Distancia de la estación: ENE 8km
Actualización: 25/06/2016 01:30
Despejado
Despejado
 Viento de SO
Viento: SO 11 km/h
Temperatura: 23°C
Rocío: 15°C
Humedad: 61%
Barómetro: 1015 hPa
Resumen: Despejado
Visibilidad: mayor de 10 km
2016/06/24 23:30 LEZL 242330Z 22006KT CAVOK 23/15 Q1015 NOSIG
LEMO - Morón, Spain
Distancia de la estación: SE 43km
Actualización: 25/06/2016 01:00
Despejado
Despejado
 Viento de SSO
Viento: SSO 13 km/h
Temperatura: 23°C
Rocío: 16°C
Humedad: 65%
Barómetro: 1016 hPa
Resumen: Despejado
Visibilidad: mayor de 10 km
2016/06/24 23:00 LEMO 242300Z 20007KT CAVOK 23/16 Q1016 NOSIG
LEJR - Jeréz, Spain
Distancia de la estación: S 71km
Actualización: 24/06/2016 23:00
NOT Current
Despejado
Despejado
 Viento de calm
Viento: Calma
Temperatura: 23°C
Rocío: 17°C
Humedad: 69%
Barómetro: 1016 hPa
Resumen: Despejado
Visibilidad: mayor de 10 km
2016/06/24 21:00 LEJR 242100Z 00000KT CAVOK 23/17 Q1016
 
LERT - Rota, Spain
Distancia de la estación: SSO 89km
Actualización: 25/06/2016 01:00
Despejado
Despejado
 Viento de variable
Viento: variable 4 km/h
Temperatura: 21°C
Rocío: 16°C
Humedad: 73%
Barómetro: 1016 hPa
Resumen: Despejado
Visibilidad: mayor de 10 km
2016/06/24 23:00 LERT 242300Z VRB02KT CAVOK 21/16 Q1016 NOSIG
LEMG - Málaga, Spain
Distancia de la estación: ESE 157km
Actualización: 25/06/2016 01:30
Despejado
Despejado
 Viento de ONO
Viento: ONO 9 km/h
Temperatura: 19°C
Rocío: 17°C
Humedad: 88%
Barómetro: 1016 hPa
Resumen: Despejado
Visibilidad: mayor de 10 km
2016/06/24 23:30 LEMG 242330Z 29005KT CAVOK 19/17 Q1016 NOSIG
LEBA - Córdoba, Spain
Distancia de la estación: ENE 115km
Actualización: 25/06/2016 01:30
Despejado
Despejado
 Viento de SO
Viento: SO 7 km/h
Temperatura: 25°C
Rocío: 14°C
Humedad: 51%
Barómetro: 1015 hPa
Nubes: Despejado
Visibilidad: 10 km
2016/06/24 23:30 LEBA 242330Z AUTO 23004KT 190V260 9999 NCD 25/14 Q1015
 
LEGR - Granada, Spain
Distancia de la estación: E 198km
Actualización: 25/06/2016 01:30
Despejado
Despejado
 Viento de SO
Viento: SO 6 km/h
Temperatura: 24°C
Rocío: 11°C
Humedad: 44%
Barómetro: 1018 hPa
Nubes: Despejado
Visibilidad: 10 km
2016/06/24 23:30 LEGR 242330Z AUTO 23003KT 9999 NCD 24/11 Q1018
LEAM - Almería, Spain
Distancia de la estación: E 326km
Actualización: 24/06/2016 22:30
NOT Current
Despejado
Despejado
 Viento de calm
Viento: Calma
Temperatura: 23°C
Rocío: 19°C
Humedad: 78%
Barómetro: 1015 hPa
Resumen: Despejado
Visibilidad: mayor de 10 km
2016/06/24 20:30 LEAM 242030Z 00000KT CAVOK 23/19 Q1015
LEMD - Madrid/Barajas, Spain
Distancia de la estación: NNE 402km
Actualización: 25/06/2016 01:30
Despejado
Despejado
 Viento de NO
Viento: NO 11 km/h
Temperatura: 23°C
Rocío: 7°C
Humedad: 36%
Barómetro: 1017 hPa
Resumen: Despejado
Visibilidad: mayor de 10 km
2016/06/24 23:30 LEMD 242330Z 31006KT CAVOK 23/07 Q1017 NOSIG
 
LEVD - Valladolid, Spain
Distancia de la estación: N 492km
Actualización: 24/06/2016 21:30
NOT Current
Despejado
Despejado
 Viento de ENE
Viento: ENE 24 km/h
Temperatura: 19°C
Rocío: 13°C
Humedad: 68%
Barómetro: 1020 hPa
Resumen: Despejado
Visibilidad: mayor de 10 km
2016/06/24 19:30 LEVD 241930Z 06013KT CAVOK 19/13 Q1020
LEBL - Barcelona, Spain
Distancia de la estación: NE 816km
Actualización: 25/06/2016 01:30
Poco nuboso
Poco nuboso
 Viento de S
Viento: S 9 km/h
Temperatura: 22°C
Rocío: 20°C
Humedad: 88%
Barómetro: 1015 hPa
Nubes: Poco nuboso
Visibilidad: 10 km
Detalles de las nubes: Poco nuboso 1219 m
2016/06/24 23:30 LEBL 242330Z 18005KT 150V210 9999 FEW040 22/20 Q1015 NOSIG
LEVC - Valencia, Spain
Distancia de la estación: ENE 535km
Actualización: 25/06/2016 01:30
Despejado
Despejado
 Viento de NE
Viento: NE 7 km/h
Temperatura: 23°C
Rocío: 17°C
Humedad: 69%
Barómetro: 1015 hPa
Resumen: Despejado
Visibilidad: mayor de 10 km
2016/06/24 23:30 LEVC 242330Z 04004KT 350V080 CAVOK 23/17 Q1015 NOSIG